Portada
METAR-TAF:

METAR-TAF

Aeroports :

Aeroport de Basilea-Mulhouse-Friburg

Basilea-Mülhausen-Friburg, França

latitud: 47-36N, longitud: 007-31E, altitud: 270 m

Observació

L'informe es va fer fa 38 minuts, a les 15:00 UTC
Vent 11 kt del Nord, variant entre Nord/Nord-Oest i Nord/Nord-Est
Temperatura 21°C
Humitat 46%
Pressió 1031 hPa
Visibilitat 10 km o més

METAR: LFSB 251500Z AUTO 36011KT 330V030 9999 NCD 21/09 Q1031 NOSIG

Hora: 17:38 (15:38 UTC)

Pronòstic

L'informe es va fer fa 4 hores i 38 minuts, a les 11:00 UTC
Pronòstic vàlid del 25 a les 12 UTC al 26 a les 12 UTC
Vent 10 kt del Nord
Visibilitat 10 km o més
Escasses núvols a una alçada de 4000 ft
Evolucionant progressivament
l' 25 a les 19 UTC al 25 a les 22 UTC
Vent 3 kt amb direcció variable

TAF: LFSB 251100Z 2512/2612 36010KT 9999 FEW040 BECMG 2519/2522 VRB03KT

Observacions i pronòstics meteorològics de més de 4000 aeroports (METAR i TAF).

Les estacions disponibles són els punts grocs i vermells al mapa.

Posi el ratolí al punt desitjat per veure el nom de l'estació.

Feu clic per veure les observacions i els pronòstics meteorològics.

Per canviar el mapa: feu clic els botons verds amb una creu de color negre per apropar; al botó verd amb un guió per allunyar la imatge; o en les fletxes verdes per a mapes adjacents.


METAR-TAF: